Terminal Aerodrome Forecast
Issued by NWS

Home | Current Version | Previous Version | Text Only | Print | Product List | Glossary On
Versions: 1 2 3 4 5 6 7 8 9 10 11 12 13 14
000
FTUS46 KSEW 241100
TAFOLM
TAF
KOLM 241132Z 2412/2512 19010KT P6SM VCSH OVC030
     FM241400 20012KT P6SM VCSH OVC015
     FM241800 21012G20KT P6SM OVC025
     FM242100 23012G20KT P6SM BKN030
     FM250600 19007KT P6SM OVC030=

USA.gov is the U.S. government's official web portal to all federal, state and local government web resources and services.